Time;durP1;ratioP1;P1;durP2;ratioP2;P2;SDS_P1;SDS_P2;PMS_P1;PMS_P2;Temp;Humidity;BMP_temperature;BMP_pressure;BME280_temperature;BME280_humidity;BME280_pressure;Samples;Min_cycle;Max_cycle;Signal;HPM_P1;HPM_P2
2023/03/26 00:00:42;;;;;;;12.07;7.22;;;;;;;11.37;77.74;100682.44;5075715;28;20021;-90
2023/03/26 00:03:12;;;;;;;11.90;7.07;;;;;;;11.18;77.88;100640.53;5076444;28;20055;-89
2023/03/26 00:05:40;;;;;;;12.50;7.43;;;;;;;11.30;77.59;100668.97;5087359;28;20028;-89
2023/03/26 00:08:09;;;;;;;11.63;7.07;;;;;;;11.43;77.53;100679.22;5090789;28;20108;-89
2023/03/26 00:10:37;;;;;;;11.63;7.25;;;;;;;11.26;77.66;100660.09;5095875;28;20022;-88
2023/03/26 00:13:05;;;;;;;12.27;7.13;;;;;;;11.08;77.83;100619.97;5094865;28;20096;-89
2023/03/26 00:15:34;;;;;;;10.15;6.50;;;;;;;11.14;77.48;100644.69;5078364;28;20020;-89
2023/03/26 00:18:00;;;;;;;11.32;6.88;;;;;;;11.25;78.05;100654.78;5080442;28;20073;-88
2023/03/26 00:20:26;;;;;;;11.18;6.60;;;;;;;11.21;78.09;100640.66;5094984;28;20488;-88
2023/03/26 00:22:54;;;;;;;10.77;6.90;;;;;;;11.06;77.90;100621.63;5077411;28;20114;-88
2023/03/26 00:25:20;;;;;;;11.73;7.25;;;;;;;11.28;77.97;100640.16;5094145;28;20069;-89
2023/03/26 00:27:48;;;;;;;12.30;6.97;;;;;;;11.39;77.62;100646.81;5077308;28;20079;-88
2023/03/26 00:30:14;;;;;;;12.35;7.10;;;;;;;11.31;77.91;100639.41;5085756;28;20474;-88
2023/03/26 00:32:39;;;;;;;13.18;7.00;;;;;;;11.03;77.51;100579.66;5096346;28;20157;-88
2023/03/26 00:35:06;;;;;;;14.18;7.72;;;;;;;11.18;77.80;100617.91;5111804;28;20039;-88
2023/03/26 00:37:32;;;;;;;12.05;6.93;;;;;;;11.27;77.73;100682.78;5090900;28;20024;-88
2023/03/26 00:40:05;;;;;;;11.98;7.10;;;;;;;11.00;77.98;100628.31;5091295;28;20568;-89
2023/03/26 00:42:32;;;;;;;12.60;7.22;;;;;;;11.01;77.84;100616.19;5108618;28;20066;-87
2023/03/26 00:44:57;;;;;;;11.93;7.38;;;;;;;10.89;78.07;100586.81;5094346;28;20047;-88
2023/03/26 00:47:24;;;;;;;13.45;7.57;;;;;;;11.30;77.98;100659.44;5106752;28;20020;-88
2023/03/26 00:49:49;;;;;;;11.82;7.18;;;;;;;10.96;78.16;100582.00;5090873;28;20638;-87
2023/03/26 00:52:17;;;;;;;11.32;6.82;;;;;;;11.37;77.61;100642.34;5087480;28;20031;-87
2023/03/26 00:54:44;;;;;;;12.48;7.15;;;;;;;11.36;77.70;100680.63;5102919;28;20480;-87
2023/03/26 00:57:11;;;;;;;11.68;7.53;;;;;;;11.38;77.82;100691.16;5110872;28;20050;-87
2023/03/26 00:59:38;;;;;;;11.65;7.05;;;;;;;11.37;77.95;100685.03;5110906;28;20050;-88
2023/03/26 01:02:05;;;;;;;11.18;6.90;;;;;;;11.03;77.94;100611.00;5074104;28;20541;-87
2023/03/26 01:04:33;;;;;;;12.18;7.13;;;;;;;11.32;77.77;100678.69;5103982;28;20111;-88
2023/03/26 01:07:20;;;;;;;11.50;6.80;;;;;;;11.38;77.63;100673.75;5110936;28;20043;-87
2023/03/26 01:09:51;;;;;;;10.15;6.43;;;;;;;11.36;77.56;100672.78;5110912;28;20027;-88
2023/03/26 01:12:20;;;;;;;11.02;7.18;;;;;;;11.18;77.51;100625.75;5110941;28;20028;-87
2023/03/26 01:14:50;;;;;;;10.20;6.43;;;;;;;11.21;77.70;100617.16;5094188;28;20157;-87
2023/03/26 01:17:17;;;;;;;11.73;7.13;;;;;;;11.39;77.54;100657.25;5111022;28;20019;-87
2023/03/26 01:19:48;;;;;;;11.82;6.47;;;;;;;11.36;77.71;100662.31;5110268;28;20028;-88
2023/03/26 01:22:17;;;;;;;10.93;6.50;;;;;;;11.32;77.79;100660.38;5110698;28;20050;-88
2023/03/26 01:24:45;;;;;;;10.98;6.47;;;;;;;11.27;77.56;100624.41;5073306;28;20055;-88
2023/03/26 01:27:33;;;;;;;11.45;6.53;;;;;;;11.30;77.88;100624.53;5056716;28;20028;-88
2023/03/26 01:30:09;;;;;;;10.15;6.63;;;;;;;11.33;77.67;100628.19;5076798;28;20052;-89
2023/03/26 01:32:49;;;;;;;11.95;6.95;;;;;;;11.34;77.65;100626.47;5090068;28;20501;-87
2023/03/26 01:35:30;;;;;;;11.57;6.55;;;;;;;11.28;77.91;100627.09;5073493;28;20520;-88
2023/03/26 01:38:10;;;;;;;10.63;6.70;;;;;;;11.36;77.50;100641.41;5072940;28;20031;-87
2023/03/26 01:40:42;;;;;;;10.52;6.53;;;;;;;11.26;77.65;100612.13;5056326;28;20383;-89
2023/03/26 01:43:21;;;;;;;10.85;6.63;;;;;;;11.21;78.08;100604.97;5090801;28;20032;-88
2023/03/26 01:45:48;;;;;;;11.52;7.00;;;;;;;11.40;77.35;100627.66;5094526;28;20024;-88
2023/03/26 01:48:15;;;;;;;12.70;7.57;;;;;;;11.18;77.64;100611.78;5095509;28;20039;-88
2023/03/26 01:50:40;;;;;;;11.75;6.95;;;;;;;11.15;77.70;100617.75;5099047;28;20027;-89
2023/03/26 01:53:08;;;;;;;12.05;7.18;;;;;;;11.28;77.69;100637.56;5092361;28;20032;-88
2023/03/26 01:55:42;;;;;;;11.55;7.00;;;;;;;11.33;77.70;100643.00;5053249;28;20025;-88
2023/03/26 01:58:26;;;;;;;10.77;6.35;;;;;;;11.34;77.80;100657.84;5085696;28;20024;-88
2023/03/26 02:01:11;;;;;;;11.70;7.15;;;;;;;11.34;77.95;100653.50;5074245;28;20054;-88
2023/03/26 02:03:52;;;;;;;11.23;6.88;;;;;;;11.15;77.97;100629.91;5071466;28;20406;-88
2023/03/26 02:06:42;;;;;;;10.95;6.50;;;;;;;11.17;78.00;100631.78;5073054;28;20031;-88
2023/03/26 02:09:11;;;;;;;11.00;6.90;;;;;;;11.31;77.94;100645.53;5073124;28;20060;-88
2023/03/26 02:11:39;;;;;;;10.93;6.75;;;;;;;11.12;77.97;100622.81;5056246;28;20512;-89
2023/03/26 02:14:06;;;;;;;11.30;6.57;;;;;;;11.24;77.93;100639.91;5073261;28;20035;-87
2023/03/26 02:16:33;;;;;;;10.82;6.68;;;;;;;11.31;78.22;100655.97;5072790;28;20387;-88
2023/03/26 02:18:59;;;;;;;10.82;6.88;;;;;;;10.94;77.71;100598.38;5072933;28;20039;-88
2023/03/26 02:21:26;;;;;;;9.88;6.45;;;;;;;11.07;77.99;100616.47;5072606;28;20016;-88
2023/03/26 02:24:01;;;;;;;11.05;6.68;;;;;;;11.36;77.48;100659.72;5072404;28;20028;-87
2023/03/26 02:26:31;;;;;;;11.23;7.15;;;;;;;11.33;77.61;100658.69;5073138;28;20400;-89
2023/03/26 02:28:57;;;;;;;10.75;6.53;;;;;;;11.22;77.62;100650.31;5072279;28;20035;-88
2023/03/26 02:31:25;;;;;;;10.25;6.40;;;;;;;11.19;77.92;100652.75;5088461;28;20043;-89
2023/03/26 02:33:54;;;;;;;9.95;6.40;;;;;;;11.18;77.99;100645.75;5077129;28;20032;-88
2023/03/26 02:36:23;;;;;;;10.00;6.40;;;;;;;11.07;77.70;100623.41;5083168;28;20496;-87
2023/03/26 02:38:49;;;;;;;10.95;6.70;;;;;;;11.20;77.79;100644.13;5109598;28;20054;-89
2023/03/26 02:41:15;;;;;;;10.38;6.22;;;;;;;11.34;77.66;100671.81;5109421;28;20441;-90
2023/03/26 02:43:42;;;;;;;9.68;6.50;;;;;;;11.14;77.95;100652.53;5092318;28;20118;-87
2023/03/26 02:46:08;;;;;;;10.88;6.65;;;;;;;11.18;77.93;100645.75;5111281;28;20047;-88
2023/03/26 02:48:35;;;;;;;10.65;6.85;;;;;;;11.21;77.98;100657.22;5092527;28;20039;-90
2023/03/26 02:51:01;;;;;;;10.15;6.35;;;;;;;10.97;78.06;100614.22;5076890;28;20032;-90
2023/03/26 02:53:31;;;;;;;9.80;6.28;;;;;;;11.31;78.12;100660.31;5088042;28;20113;-90
2023/03/26 02:55:57;;;;;;;10.77;6.68;;;;;;;11.26;77.89;100646.13;5102531;28;20039;-89
2023/03/26 02:58:25;;;;;;;;;;;;;;;11.38;77.75;100650.22;5113903;28;20476;-89
2023/03/26 03:00:53;;;;;;;10.35;6.65;;;;;;;11.18;77.62;100627.47;5110410;28;19934;-88
2023/03/26 03:03:26;;;;;;;10.02;6.38;;;;;;;11.11;77.77;100607.97;5094783;28;20487;-89
2023/03/26 03:05:53;;;;;;;9.50;6.05;;;;;;;11.18;77.81;100623.13;5088037;28;20035;-89
2023/03/26 03:08:20;;;;;;;10.25;6.40;;;;;;;11.27;77.88;100637.47;5095215;28;20027;-90
2023/03/26 03:10:59;;;;;;;11.15;6.60;;;;;;;11.24;77.88;100633.00;5096708;28;20027;-90
2023/03/26 03:13:25;;;;;;;10.50;6.40;;;;;;;11.29;77.60;100644.56;5096329;28;20108;-89
2023/03/26 03:15:51;;;;;;;10.25;6.10;;;;;;;11.08;77.87;100623.50;5093058;28;20113;-90
2023/03/26 03:18:16;;;;;;;11.05;6.70;;;;;;;11.17;77.67;100636.09;5097876;28;20055;-89
2023/03/26 03:20:43;;;;;;;9.43;6.25;;;;;;;11.15;77.77;100636.06;5101383;28;20074;-90
2023/03/26 03:23:10;;;;;;;11.13;6.53;;;;;;;11.04;77.78;100623.25;5091447;28;20595;-89
2023/03/26 03:25:37;;;;;;;11.70;6.85;;;;;;;11.17;77.69;100649.19;5092922;28;20098;-90
2023/03/26 03:28:03;;;;;;;9.15;6.00;;;;;;;11.14;78.01;100639.47;5093210;28;20027;-90
2023/03/26 03:30:29;;;;;;;10.23;6.35;;;;;;;10.89;77.79;100594.66;5075450;28;20044;-90
2023/03/26 03:32:57;;;;;;;9.80;5.88;;;;;;;11.14;77.56;100630.75;5092745;28;20031;-87
2023/03/26 03:35:23;;;;;;;9.27;6.07;;;;;;;10.87;77.70;100585.84;5106743;28;20034;-87
2023/03/26 03:37:49;;;;;;;10.10;6.75;;;;;;;10.86;77.60;100584.03;5091957;28;20471;-88
2023/03/26 03:40:15;;;;;;;10.50;6.45;;;;;;;11.26;77.56;100638.28;5105054;28;20085;-87
2023/03/26 03:42:41;;;;;;;10.68;6.45;;;;;;;10.90;77.72;100584.28;5112020;28;20023;-87
2023/03/26 03:45:07;;;;;;;10.48;6.55;;;;;;;10.96;77.84;100594.13;5113397;28;20092;-88
2023/03/26 03:47:33;;;;;;;10.20;6.57;;;;;;;11.07;77.52;100616.47;5084932;28;20023;-88
2023/03/26 03:49:59;;;;;;;9.50;6.20;;;;;;;11.04;77.66;100618.03;5112227;28;20796;-88
2023/03/26 03:52:26;;;;;;;11.15;6.90;;;;;;;11.08;77.66;100633.94;5094772;28;20071;-88
2023/03/26 03:54:51;;;;;;;10.70;6.28;;;;;;;10.89;78.08;100608.63;5091801;28;20398;-88
2023/03/26 03:57:17;;;;;;;10.88;6.55;;;;;;;11.17;77.77;100647.44;5113777;28;20110;-88
2023/03/26 03:59:43;;;;;;;10.35;6.38;;;;;;;11.00;77.92;100627.44;5111507;28;20055;-88
2023/03/26 04:02:10;;;;;;;10.02;6.50;;;;;;;11.09;77.52;100638.38;5094124;28;20513;-88
2023/03/26 04:04:36;;;;;;;;;;;;;;;11.32;77.99;100680.41;5092670;28;20115;-87
2023/03/26 04:07:03;;;;;;;9.87;6.17;;;;;;;11.29;78.12;100691.59;5104563;28;19959;-87
2023/03/26 04:09:29;;;;;;;10.27;6.43;;;;;;;11.26;77.84;100685.31;5092553;28;20111;-85
2023/03/26 04:11:54;;;;;;;10.13;6.80;;;;;;;10.83;77.66;100615.25;5099485;28;20031;-86
2023/03/26 04:14:20;;;;;;;9.60;6.55;;;;;;;11.31;77.62;100700.44;5092707;28;20028;-87
2023/03/26 04:16:48;;;;;;;10.50;6.78;;;;;;;11.22;77.97;100692.13;5112504;28;20015;-90
2023/03/26 04:19:15;;;;;;;10.15;6.38;;;;;;;11.02;77.99;100670.22;5112173;28;20027;-90
2023/03/26 04:21:41;;;;;;;10.00;5.93;;;;;;;11.10;77.76;100675.84;5086089;28;20024;-89
2023/03/26 04:24:09;;;;;;;9.80;6.30;;;;;;;11.28;78.14;100718.59;5094221;28;20035;-90
2023/03/26 04:26:35;;;;;;;10.40;6.10;;;;;;;10.99;77.89;100657.91;5113129;28;20098;-90
2023/03/26 04:29:05;;;;;;;10.35;6.38;;;;;;;11.00;77.72;100675.34;5094543;28;20177;-90
2023/03/26 04:31:32;;;;;;;9.25;6.13;;;;;;;11.20;77.50;100720.81;5111697;28;20051;-91
2023/03/26 04:34:06;;;;;;;10.25;6.57;;;;;;;10.93;77.83;100682.81;5094425;28;20024;-90
2023/03/26 04:36:33;;;;;;;9.65;5.90;;;;;;;11.15;77.81;100724.91;5074566;28;20035;-90
2023/03/26 04:39:03;;;;;;;9.63;6.13;;;;;;;11.20;77.80;100731.25;5092882;28;20035;-88
2023/03/26 04:41:31;;;;;;;9.27;6.05;;;;;;;11.28;78.14;100743.81;5086095;28;20023;-88
2023/03/26 04:44:00;;;;;;;9.48;6.50;;;;;;;11.17;77.98;100728.47;5107813;28;20047;-88
2023/03/26 04:46:27;;;;;;;9.20;6.00;;;;;;;11.35;77.72;100761.63;5111920;28;20023;-89
2023/03/26 04:48:54;;;;;;;10.32;6.35;;;;;;;11.22;78.05;100749.66;5098018;28;20022;-90
2023/03/26 04:51:25;;;;;;;9.20;5.90;;;;;;;11.28;77.85;100760.41;5098832;28;20031;-89
2023/03/26 04:53:58;;;;;;;10.13;6.10;;;;;;;11.16;77.98;100745.00;5092701;28;20028;-88
2023/03/26 04:56:45;;;;;;;8.80;5.93;;;;;;;11.31;77.66;100771.00;5081744;28;20093;-91
2023/03/26 04:59:14;;;;;;;9.70;6.50;;;;;;;11.19;77.64;100773.00;5066432;28;20059;-88
2023/03/26 05:01:44;;;;;;;10.35;6.47;;;;;;;11.20;77.56;100775.69;5094130;28;20281;-88
2023/03/26 05:04:12;;;;;;;8.73;5.95;;;;;;;11.07;77.62;100752.38;5094697;28;20501;-89
2023/03/26 05:06:40;;;;;;;10.23;6.25;;;;;;;11.07;77.77;100747.13;5089714;28;20055;-88
2023/03/26 05:09:07;;;;;;;9.63;6.15;;;;;;;11.14;77.78;100757.06;5084934;28;20691;-87
2023/03/26 05:11:33;;;;;;;9.85;6.25;;;;;;;11.04;77.48;100733.00;5093161;28;20015;-89
2023/03/26 05:13:58;;;;;;;9.27;5.97;;;;;;;11.01;77.51;100720.69;5111602;28;20085;-88
2023/03/26 05:16:24;;;;;;;8.93;5.93;;;;;;;11.07;77.51;100747.13;5093472;28;20023;-88
2023/03/26 05:18:50;;;;;;;9.10;5.80;;;;;;;11.20;77.71;100787.88;5093583;28;20034;-87
2023/03/26 05:21:17;;;;;;;9.70;5.88;;;;;;;11.13;77.88;100770.97;5111496;28;20023;-87
2023/03/26 05:23:42;;;;;;;9.77;6.43;;;;;;;11.34;77.90;100822.53;5073209;28;20413;-87
2023/03/26 05:26:09;;;;;;;8.90;5.90;;;;;;;11.17;77.97;100798.16;5092861;28;20024;-87
2023/03/26 05:28:35;;;;;;;9.65;6.20;;;;;;;11.37;77.94;100820.13;5072453;28;20040;-86
2023/03/26 05:31:01;;;;;;;8.52;5.75;;;;;;;11.21;77.72;100795.75;5092547;28;20508;-86
2023/03/26 05:33:27;;;;;;;8.05;5.53;;;;;;;11.10;77.53;100768.19;5093170;28;20476;-86
2023/03/26 05:36:06;;;;;;;9.95;5.63;;;;;;;11.18;77.75;100785.16;5111249;28;20091;-88
2023/03/26 05:38:32;;;;;;;9.25;6.10;;;;;;;11.21;77.93;100787.03;5099206;28;20024;-86
2023/03/26 05:41:03;;;;;;;8.38;5.60;;;;;;;11.36;77.95;100826.13;5089883;28;20520;-88
2023/03/26 05:43:29;;;;;;;7.97;5.45;;;;;;;11.08;77.72;100755.88;5102384;28;20035;-89
2023/03/26 05:45:57;;;;;;;10.25;5.70;;;;;;;11.21;78.03;100756.56;5109855;28;20032;-89
2023/03/26 05:48:22;;;;;;;8.88;5.80;;;;;;;11.06;77.67;100713.97;5093558;28;20067;-89
2023/03/26 05:51:08;;;;;;;8.82;5.63;;;;;;;11.35;78.06;100766.84;5091018;28;20024;-92
2023/03/26 05:53:34;;;;;;;7.57;5.65;;;;;;;10.90;78.09;100707.06;5089346;28;20046;-91
2023/03/26 05:56:24;;;;;;;7.82;5.47;;;;;;;11.36;77.71;100805.22;5110958;28;20032;-92
2023/03/26 05:59:05;;;;;;;7.70;5.13;;;;;;;11.11;77.74;100769.06;5112080;28;20028;-93
2023/03/26 06:01:33;;;;;;;8.30;5.60;;;;;;;11.36;77.68;100819.19;5098131;28;20053;-93
2023/03/26 06:04:04;;;;;;;7.93;5.57;;;;;;;11.29;77.96;100797.91;5067435;28;20678;-89
2023/03/26 06:06:31;;;;;;;8.30;5.45;;;;;;;11.25;77.53;100788.09;5086879;28;20173;-91
2023/03/26 06:08:57;;;;;;;10.45;6.00;;;;;;;11.26;77.94;100782.97;5096219;28;20028;-92
2023/03/26 06:11:24;;;;;;;8.55;5.50;;;;;;;11.04;77.96;100733.91;5090751;28;20054;-91
2023/03/26 06:13:52;;;;;;;8.07;5.65;;;;;;;10.87;77.98;100683.38;5105243;28;20032;-91
2023/03/26 06:16:18;;;;;;;7.20;4.93;;;;;;;10.91;78.15;100698.41;5102228;28;20035;-90
2023/03/26 06:18:45;;;;;;;7.60;5.55;;;;;;;11.13;77.73;100742.22;5091454;28;20031;-91
2023/03/26 06:21:18;;;;;;;8.50;5.28;;;;;;;11.38;77.85;100790.50;5103844;28;20040;-92
2023/03/26 06:23:47;;;;;;;8.55;5.57;;;;;;;11.35;77.83;100778.19;5101799;28;20028;-91
2023/03/26 06:26:14;;;;;;;8.07;5.63;;;;;;;11.18;77.94;100752.91;5094915;28;20035;-93
2023/03/26 06:28:45;;;;;;;7.95;5.18;;;;;;;11.26;77.98;100763.75;5119304;27;20027;-96
2023/03/26 06:31:21;;;;;;;9.00;5.72;;;;;;;11.30;77.99;100760.47;5091110;28;20040;-94
2023/03/26 06:33:48;;;;;;;7.95;5.10;;;;;;;11.18;77.90;100743.34;5091241;28;20050;-95
2023/03/26 06:36:13;;;;;;;8.45;5.10;;;;;;;11.12;77.83;100732.59;5099282;27;20063;-93
2023/03/26 06:38:41;;;;;;;7.28;5.05;;;;;;;11.16;77.98;100747.59;5109474;27;20061;-93
2023/03/26 06:41:13;;;;;;;8.00;5.32;;;;;;;11.19;77.99;100755.59;5110662;27;20542;-90
2023/03/26 06:43:42;;;;;;;9.38;5.35;;;;;;;11.19;77.85;100742.50;5109462;28;20027;-91
2023/03/26 06:46:10;;;;;;;8.02;5.45;;;;;;;11.17;77.57;100745.88;5090398;28;20409;-93
2023/03/26 06:48:38;;;;;;;8.32;5.22;;;;;;;11.34;77.72;100779.00;5098793;27;20029;-92
2023/03/26 06:51:04;;;;;;;7.38;4.80;;;;;;;11.09;77.82;100739.34;5088813;27;20050;-90
2023/03/26 06:53:55;;;;;;;8.27;4.97;;;;;;;11.36;78.01;100795.66;5107432;28;20108;-92
2023/03/26 06:56:29;;;;;;;6.93;4.97;;;;;;;11.21;77.82;100771.34;5101763;28;20063;-93
2023/03/26 06:58:55;;;;;;;11.43;5.28;;;;;;;11.32;77.76;100779.75;5084553;28;20028;-91
2023/03/26 07:01:21;;;;;;;8.75;5.55;;;;;;;11.24;77.72;100771.53;5104456;27;20088;-89
2023/03/26 07:03:47;;;;;;;7.53;5.18;;;;;;;11.36;77.95;100806.13;5110399;28;20151;-91
2023/03/26 07:06:14;;;;;;;7.68;5.07;;;;;;;11.24;77.88;100786.28;5110721;28;20030;-92
2023/03/26 07:08:41;;;;;;;6.70;4.65;;;;;;;11.21;77.98;100779.19;5094150;28;20032;-91
2023/03/26 07:11:07;;;;;;;8.20;5.18;;;;;;;11.25;78.08;100786.38;5100847;28;20105;-87
2023/03/26 07:13:32;;;;;;;6.97;4.95;;;;;;;11.29;77.77;100774.38;5103951;28;20032;-91
2023/03/26 07:15:58;;;;;;;7.32;5.00;;;;;;;11.40;77.93;100792.38;5115819;27;20417;-92
2023/03/26 07:18:28;;;;;;;5.97;4.60;;;;;;;11.28;78.13;100777.78;5093205;28;20031;-94
2023/03/26 07:20:54;;;;;;;7.28;5.03;;;;;;;11.12;78.03;100753.50;5109296;27;20023;-91
2023/03/26 07:23:38;;;;;;;7.97;4.90;;;;;;;11.38;78.47;100785.28;5099429;28;20046;-92
2023/03/26 07:26:30;;;;;;;7.55;5.10;;;;;;;11.43;77.98;100804.75;5107259;28;20023;-92
2023/03/26 07:29:19;;;;;;;7.53;5.25;;;;;;;11.39;78.46;100800.16;5091782;28;20039;-92
2023/03/26 07:32:07;;;;;;;7.28;4.95;;;;;;;11.45;78.18;100805.72;5109801;27;20135;-91
2023/03/26 07:34:52;;;;;;;7.00;4.72;;;;;;;11.12;78.35;100737.81;5111362;27;20023;-92
2023/03/26 07:37:49;;;;;;;8.07;5.13;;;;;;;11.44;78.09;100795.16;5101112;28;20440;-90
2023/03/26 07:40:41;;;;;;;8.98;5.10;;;;;;;11.44;78.51;100787.31;5102476;28;20061;-92
2023/03/26 07:43:30;;;;;;;7.03;4.68;;;;;;;11.39;78.47;100790.59;5100605;28;20024;-90
2023/03/26 07:45:56;;;;;;;6.70;4.70;;;;;;;11.32;78.49;100771.91;5100045;28;20061;-87
2023/03/26 07:48:28;;;;;;;7.55;5.10;;;;;;;11.40;78.37;100778.41;5099631;28;20127;-91
2023/03/26 07:50:55;;;;;;;6.50;4.60;;;;;;;11.38;78.05;100778.34;5110364;28;20053;-91
2023/03/26 07:53:22;;;;;;;6.55;4.80;;;;;;;11.34;78.46;100775.50;5112122;28;20065;-87
2023/03/26 07:55:57;;;;;;;7.30;5.15;;;;;;;11.39;78.16;100774.03;5109026;28;20023;-87
2023/03/26 07:59:01;;;;;;;7.85;4.60;;;;;;;11.39;78.08;100777.53;5098949;28;20072;-88
2023/03/26 08:01:47;;;;;;;6.63;4.30;;;;;;;11.39;78.40;100766.19;5075032;28;20059;-88
2023/03/26 08:04:40;;;;;;;7.00;4.95;;;;;;;11.40;78.44;100771.47;5109765;28;20485;-87
2023/03/26 08:07:38;;;;;;;6.30;4.57;;;;;;;11.38;78.35;100764.38;5070901;28;20408;-88
2023/03/26 08:10:13;;;;;;;6.45;4.60;;;;;;;11.38;78.12;100762.66;5067045;28;20055;-87
2023/03/26 08:12:57;;;;;;;6.05;4.55;;;;;;;11.43;78.32;100754.13;5109319;28;20051;-87
2023/03/26 08:15:31;;;;;;;6.80;4.45;;;;;;;11.41;78.28;100762.81;5080571;28;20020;-89
2023/03/26 08:18:14;;;;;;;5.80;4.35;;;;;;;11.42;78.03;100766.31;5101386;28;20028;-87
2023/03/26 08:20:46;;;;;;;6.82;4.50;;;;;;;11.31;78.15;100749.22;5111527;28;20039;-87
2023/03/26 08:23:49;;;;;;;6.13;4.28;;;;;;;11.28;78.33;100741.19;5106597;28;20622;-88
2023/03/26 08:26:47;;;;;;;5.45;4.25;;;;;;;11.45;78.17;100762.97;5112014;28;20036;-87
2023/03/26 08:29:40;;;;;;;7.30;4.78;;;;;;;11.39;78.23;100750.50;5073264;28;20509;-88
2023/03/26 08:32:13;;;;;;;7.18;4.30;;;;;;;11.36;78.41;100740.75;5110611;28;20028;-88
2023/03/26 08:34:38;;;;;;;6.47;4.55;;;;;;;11.48;78.53;100768.38;5101767;28;20028;-86
2023/03/26 08:37:04;;;;;;;5.20;4.28;;;;;;;11.52;78.67;100767.69;5098558;28;20034;-86
2023/03/26 08:39:30;;;;;;;6.32;4.60;;;;;;;11.50;78.72;100764.09;5110883;28;20069;-87
2023/03/26 08:42:17;;;;;;;5.38;4.10;;;;;;;11.51;78.33;100766.78;5106420;28;20027;-87
2023/03/26 08:45:05;;;;;;;7.70;4.78;;;;;;;11.59;77.87;100761.94;5099312;28;20073;-86
2023/03/26 08:47:48;;;;;;;;;;;;;;;11.65;77.73;100769.19;5108735;28;20055;-85
2023/03/26 08:50:35;;;;;;;5.97;4.20;;;;;;;11.64;77.66;100762.16;5111767;28;20374;-87
2023/03/26 08:53:07;;;;;;;5.80;4.17;;;;;;;11.67;77.32;100767.56;5110682;27;20031;-87
2023/03/26 08:56:08;;;;;;;6.30;4.20;;;;;;;11.56;77.60;100747.00;5100795;28;20384;-87
2023/03/26 08:59:11;;;;;;;5.78;4.38;;;;;;;11.69;77.46;100763.31;5104438;28;20023;-87
2023/03/26 09:02:15;;;;;;;5.95;4.38;;;;;;;11.77;76.60;100755.00;5106674;28;20106;-88
2023/03/26 09:05:18;;;;;;;6.45;4.43;;;;;;;11.69;77.70;100771.16;5097159;28;20032;-87
2023/03/26 09:08:02;;;;;;;6.40;4.50;;;;;;;11.78;77.11;100776.81;5108518;28;20435;-86
2023/03/26 09:11:05;;;;;;;5.30;4.28;;;;;;;11.69;77.54;100774.66;5098279;28;20059;-88
2023/03/26 09:13:52;;;;;;;5.53;4.10;;;;;;;11.66;77.91;100770.97;5103510;28;20543;-89
2023/03/26 09:16:24;;;;;;;5.30;4.00;;;;;;;11.65;77.91;100772.72;5095790;28;20028;-90
2023/03/26 09:19:02;;;;;;;5.43;4.05;;;;;;;11.53;78.30;100757.28;5077654;28;20457;-90
2023/03/26 09:21:37;;;;;;;5.60;4.20;;;;;;;11.65;78.02;100774.44;5109195;28;20480;-89
2023/03/26 09:24:10;;;;;;;6.45;4.43;;;;;;;11.64;77.90;100780.47;5108743;28;20023;-89
2023/03/26 09:27:05;;;;;;;5.28;4.15;;;;;;;11.61;78.30;100782.09;5110667;28;20031;-89
2023/03/26 09:29:52;;;;;;;5.65;4.20;;;;;;;11.64;78.09;100780.47;5079962;28;20040;-90
2023/03/26 09:32:36;;;;;;;4.90;4.05;;;;;;;11.60;78.22;100763.75;5057683;28;20090;-90
2023/03/26 09:35:43;;;;;;;5.53;4.15;;;;;;;11.67;78.38;100780.63;5071108;28;20106;-90
2023/03/26 09:38:24;;;;;;;5.93;4.20;;;;;;;11.67;78.47;100773.69;5048709;28;20039;-89
2023/03/26 09:41:02;;;;;;;5.57;4.30;;;;;;;11.72;78.45;100776.50;5091277;28;20024;-90
2023/03/26 09:44:06;;;;;;;5.00;3.83;;;;;;;11.67;78.13;100776.28;5073598;28;20082;-89
2023/03/26 09:47:12;;;;;;;5.80;4.30;;;;;;;11.59;78.41;100751.47;5080892;28;20032;-90
2023/03/26 09:49:41;;;;;;;5.60;4.03;;;;;;;11.66;78.57;100769.25;5080037;28;20028;-91
2023/03/26 09:52:35;;;;;;;5.78;4.25;;;;;;;11.71;78.31;100762.53;5056049;28;20020;-90
2023/03/26 09:55:19;;;;;;;5.68;3.90;;;;;;;11.63;78.09;100763.88;5055399;28;20066;-89
2023/03/26 09:58:06;;;;;;;5.43;4.32;;;;;;;11.72;78.31;100771.28;5056628;28;20035;-89
2023/03/26 10:00:47;;;;;;;4.60;3.65;;;;;;;11.73;78.24;100771.38;5091482;28;20088;-89
2023/03/26 10:03:37;;;;;;;5.68;3.90;;;;;;;11.71;78.42;100774.75;5055415;28;20032;-93
2023/03/26 10:06:41;;;;;;;5.47;4.05;;;;;;;11.71;78.03;100766.88;5054470;28;20040;-93
2023/03/26 10:12:52;;;;;;;5.13;4.07;;;;;;;11.64;77.56;100749.06;5072896;28;20047;-93
2023/03/26 10:15:51;;;;;;;5.85;4.22;;;;;;;11.78;77.80;100764.63;5072897;28;20530;-91
2023/03/26 10:18:45;;;;;;;4.95;3.70;;;;;;;11.78;77.85;100771.59;5064283;28;20032;-93
2023/03/26 10:21:23;;;;;;;4.78;3.53;;;;;;;11.79;77.37;100762.94;5087976;28;20122;-92
2023/03/26 10:27:31;;;;;;;5.22;4.00;;;;;;;11.81;77.65;100753.44;5084153;28;20036;-95
2023/03/26 10:30:15;;;;;;;5.30;3.60;;;;;;;11.73;77.53;100733.84;5071279;28;20052;-95
2023/03/26 10:33:08;;;;;;;4.82;3.88;;;;;;;11.84;77.51;100753.56;5103133;28;20036;-89
2023/03/26 10:39:22;;;;;;;5.13;3.92;;;;;;;11.86;76.82;100761.50;5103170;28;20035;-92
2023/03/26 10:42:27;;;;;;;5.32;3.55;;;;;;;11.90;77.10;100764.38;5089966;28;20055;-92
2023/03/26 10:45:17;;;;;;;5.90;3.45;;;;;;;11.88;77.42;100765.09;5092263;28;20385;-93
2023/03/26 10:48:21;;;;;;;4.07;3.50;;;;;;;11.88;77.40;100757.25;5087511;28;20084;-93
2023/03/26 10:51:28;;;;;;;4.63;3.35;;;;;;;11.66;76.76;100723.91;5103947;28;20027;-92
2023/03/26 10:54:00;;;;;;;5.53;3.65;;;;;;;11.89;77.23;100767.81;5084908;28;20191;-93
2023/03/26 10:56:35;;;;;;;4.07;3.40;;;;;;;11.90;76.98;100760.88;5072383;28;20032;-93
2023/03/26 10:59:15;;;;;;;5.30;3.75;;;;;;;11.92;77.45;100772.31;5104325;28;20057;-90
2023/03/26 11:02:02;;;;;;;4.68;3.80;;;;;;;11.95;77.10;100760.25;5087749;28;20046;-93
2023/03/26 11:05:15;;;;;;;4.32;3.45;;;;;;;11.94;76.86;100752.34;5092183;28;20114;-91
2023/03/26 11:07:59;;;;;;;6.38;4.35;;;;;;;11.95;77.12;100747.16;5102880;28;20047;-91
2023/03/26 11:10:36;;;;;;;3.90;3.30;;;;;;;11.96;77.10;100742.84;5098899;28;20049;-91
2023/03/26 11:13:16;;;;;;;4.88;3.72;;;;;;;11.92;77.16;100739.19;5093945;27;20036;-91
2023/03/26 11:16:21;;;;;;;4.70;3.70;;;;;;;11.99;77.42;100745.59;5089975;28;20055;-92
2023/03/26 11:19:25;;;;;;;4.00;3.60;;;;;;;12.00;77.01;100744.75;5106820;28;20039;-90
2023/03/26 11:22:01;;;;;;;3.97;3.28;;;;;;;12.01;77.13;100744.84;5092752;28;20630;-89
2023/03/26 11:24:34;;;;;;;6.05;3.90;;;;;;;12.04;77.36;100749.31;5109154;28;20031;-92
2023/03/26 11:27:15;;;;;;;4.38;3.58;;;;;;;11.76;77.10;100706.09;5111161;28;20038;-93
2023/03/26 11:30:15;;;;;;;4.38;3.42;;;;;;;12.05;77.33;100738.03;5110086;27;20028;-93
2023/03/26 11:32:44;;;;;;;7.00;3.88;;;;;;;11.91;76.86;100712.94;5083515;28;20093;-91
2023/03/26 11:35:35;;;;;;;5.35;3.63;;;;;;;11.96;77.11;100714.06;5050907;28;20024;-92
2023/03/26 11:38:05;;;;;;;4.18;3.47;;;;;;;11.55;77.16;100643.19;5068216;28;20028;-89
2023/03/26 11:40:37;;;;;;;4.63;3.50;;;;;;;12.13;76.58;100730.56;5057440;28;20496;-90
2023/03/26 11:43:12;;;;;;;5.03;3.58;;;;;;;12.15;76.60;100727.19;5068148;28;20414;-91
2023/03/26 11:45:45;;;;;;;4.95;3.45;;;;;;;12.17;76.70;100725.53;5085147;28;20036;-92
2023/03/26 11:48:11;;;;;;;4.35;3.60;;;;;;;12.17;76.38;100724.63;5088774;28;20028;-91
2023/03/26 11:51:00;;;;;;;4.25;3.25;;;;;;;12.25;76.24;100725.88;5067809;28;20063;-92
2023/03/26 11:53:53;;;;;;;4.97;3.53;;;;;;;12.28;75.90;100720.81;5073402;28;20046;-91
2023/03/26 11:56:44;;;;;;;4.38;3.45;;;;;;;12.31;75.96;100730.50;5065908;28;20032;-92
2023/03/26 11:59:20;;;;;;;4.60;3.30;;;;;;;12.27;75.52;100712.88;5084587;28;20032;-91
2023/03/26 12:02:03;;;;;;;4.60;3.40;;;;;;;12.38;75.34;100717.78;5079999;28;20020;-92
2023/03/26 12:04:42;;;;;;;4.72;3.40;;;;;;;12.34;75.21;100720.16;5086568;28;20028;-91
2023/03/26 12:07:31;;;;;;;5.18;3.65;;;;;;;12.37;75.71;100731.69;5065555;28;20040;-92